createdAt,value
2019-05-05T00:01:17.882Z,3.40
2019-05-05T00:03:47.933Z,3.00
2019-05-05T00:06:16.358Z,3.00
2019-05-05T00:08:45.651Z,3.63
2019-05-05T00:11:28.259Z,3.10
2019-05-05T00:14:04.704Z,6.10
2019-05-05T00:16:35.145Z,4.57
2019-05-05T00:19:04.752Z,4.60
2019-05-05T00:21:34.324Z,3.90
2019-05-05T00:24:04.638Z,3.90
2019-05-05T00:26:34.862Z,3.63
2019-05-05T00:29:04.378Z,3.73
2019-05-05T00:31:34.882Z,3.47
2019-05-05T00:34:05.003Z,3.60
2019-05-05T00:36:35.199Z,3.83
2019-05-05T00:39:04.868Z,3.20
2019-05-05T00:41:34.619Z,3.50
2019-05-05T00:44:04.727Z,3.30
2019-05-05T00:46:47.019Z,3.17
2019-05-05T00:49:15.459Z,3.20
2019-05-05T00:51:44.401Z,3.30
2019-05-05T00:54:14.904Z,3.20
2019-05-05T00:56:45.063Z,3.70
2019-05-05T00:59:17.626Z,3.33
2019-05-05T01:02:04.660Z,3.40
2019-05-05T01:04:35.272Z,3.03
2019-05-05T01:07:04.981Z,3.30
2019-05-05T01:09:34.601Z,3.57
2019-05-05T01:12:04.362Z,3.00
2019-05-05T01:14:34.281Z,3.43
2019-05-05T01:17:02.773Z,3.13
2019-05-05T01:19:31.206Z,3.07
2019-05-05T01:21:59.616Z,2.73
2019-05-05T01:24:28.192Z,3.00
2019-05-05T01:26:56.667Z,2.83
2019-05-05T01:29:25.318Z,3.10
2019-05-05T01:31:55.623Z,2.80
2019-05-05T01:34:25.704Z,3.10
2019-05-05T01:36:55.756Z,3.07
2019-05-05T01:39:25.827Z,3.00
2019-05-05T01:42:01.852Z,3.03
2019-05-05T01:44:30.281Z,3.60
2019-05-05T01:46:58.688Z,3.27
2019-05-05T01:49:27.134Z,3.27
2019-05-05T01:51:55.548Z,3.50
2019-05-05T01:54:24.967Z,3.10
2019-05-05T01:56:55.449Z,3.17
2019-05-05T01:59:24.846Z,3.27
2019-05-05T02:01:55.121Z,3.37
2019-05-05T02:04:25.013Z,3.20
2019-05-05T02:06:54.941Z,2.90
2019-05-05T02:09:24.997Z,3.10
2019-05-05T02:11:54.686Z,3.40
2019-05-05T02:14:24.668Z,3.10
2019-05-05T02:16:54.578Z,2.70
2019-05-05T02:19:25.009Z,3.33
2019-05-05T02:21:54.761Z,3.07
2019-05-05T02:24:25.075Z,2.87
2019-05-05T02:26:54.537Z,3.10
2019-05-05T02:29:40.330Z,3.23
2019-05-05T02:32:25.928Z,3.37
2019-05-05T02:34:56.581Z,3.10
2019-05-05T02:37:25.675Z,3.13
2019-05-05T02:40:01.952Z,3.33
2019-05-05T02:42:26.458Z,3.30
2019-05-05T02:44:57.281Z,2.97
2019-05-05T02:47:34.879Z,3.20
2019-05-05T02:50:05.655Z,3.10
2019-05-05T02:52:34.784Z,2.87
2019-05-05T02:55:04.264Z,3.30
2019-05-05T02:57:34.542Z,3.50
2019-05-05T03:00:16.605Z,3.67
2019-05-05T03:02:45.111Z,3.40
2019-05-05T03:05:14.594Z,3.13
2019-05-05T03:07:43.829Z,3.53
2019-05-05T03:10:14.095Z,3.23
2019-05-05T03:12:43.901Z,2.97
2019-05-05T03:15:15.523Z,3.30
2019-05-05T03:17:44.564Z,3.30
2019-05-05T03:20:14.539Z,3.00
2019-05-05T03:22:43.539Z,3.00
2019-05-05T03:25:13.596Z,3.17
2019-05-05T03:27:42.163Z,3.33
2019-05-05T03:30:10.645Z,3.57
2019-05-05T03:32:39.176Z,3.10
2019-05-05T03:35:07.631Z,3.63
2019-05-05T03:37:36.645Z,3.63
2019-05-05T03:40:08.232Z,3.63
2019-05-05T03:42:38.377Z,3.33
2019-05-05T03:45:08.760Z,3.40
2019-05-05T03:47:37.331Z,3.90
2019-05-05T03:50:07.207Z,3.47
2019-05-05T03:52:35.723Z,3.27
2019-05-05T03:55:06.832Z,3.30
2019-05-05T03:57:35.537Z,3.53
2019-05-05T04:00:05.674Z,3.33
2019-05-05T04:02:48.256Z,3.17
2019-05-05T04:05:21.061Z,3.27
2019-05-05T04:07:49.840Z,3.40
2019-05-05T04:10:18.319Z,3.50
2019-05-05T04:12:46.773Z,3.67
2019-05-05T04:15:15.251Z,3.53
2019-05-05T04:18:00.575Z,3.47
2019-05-05T04:20:30.257Z,3.70
2019-05-05T04:22:58.714Z,3.70
2019-05-05T04:25:27.197Z,3.33
2019-05-05T04:27:55.603Z,3.90
2019-05-05T04:30:24.050Z,3.70
2019-05-05T04:32:54.414Z,3.37
2019-05-05T04:35:24.481Z,3.70
2019-05-05T04:37:54.305Z,3.67
2019-05-05T04:40:24.039Z,4.10
2019-05-05T04:42:54.699Z,3.67
2019-05-05T04:45:24.108Z,4.00
2019-05-05T04:47:54.434Z,4.13
2019-05-05T04:50:24.506Z,4.80
2019-05-05T04:52:54.549Z,5.10
2019-05-05T04:55:24.436Z,4.97
2019-05-05T04:57:54.069Z,5.17
2019-05-05T05:00:24.201Z,5.10
2019-05-05T05:02:54.408Z,5.87
2019-05-05T05:05:35.871Z,6.63
2019-05-05T05:08:04.274Z,5.93
2019-05-05T05:10:34.595Z,5.80
2019-05-05T05:13:04.637Z,6.17
2019-05-05T05:15:34.052Z,5.47
2019-05-05T05:18:04.245Z,5.77
2019-05-05T05:20:33.956Z,5.13
2019-05-05T05:23:03.639Z,5.07
2019-05-05T05:25:34.474Z,5.00
2019-05-05T05:28:04.187Z,5.67
2019-05-05T05:30:34.495Z,5.57
2019-05-05T05:33:04.389Z,6.40
2019-05-05T05:35:33.677Z,5.70
2019-05-05T05:38:04.442Z,6.07
2019-05-05T05:40:34.273Z,6.13
2019-05-05T05:43:04.847Z,6.30
2019-05-05T05:45:34.978Z,6.00
2019-05-05T05:48:10.895Z,6.60
2019-05-05T05:50:40.953Z,6.10
2019-05-05T05:53:09.355Z,6.33
2019-05-05T05:55:37.784Z,7.00
2019-05-05T05:58:06.187Z,6.07
2019-05-05T06:00:34.622Z,5.87
2019-05-05T06:03:03.919Z,6.10
2019-05-05T06:05:34.280Z,6.30
2019-05-05T06:08:04.726Z,6.27
2019-05-05T06:10:33.882Z,7.00
2019-05-05T06:13:04.141Z,6.43
2019-05-05T06:15:33.786Z,5.90
2019-05-05T06:18:04.400Z,6.00
2019-05-05T06:20:34.364Z,6.50
2019-05-05T06:23:04.122Z,6.10
2019-05-05T06:25:34.281Z,6.30
2019-05-05T06:28:04.220Z,6.00
2019-05-05T06:30:33.656Z,5.77
2019-05-05T06:33:04.712Z,6.10
2019-05-05T06:35:33.862Z,6.30
2019-05-05T06:38:04.464Z,5.60
2019-05-05T06:40:53.726Z,5.20
2019-05-05T06:43:25.457Z,5.33
2019-05-05T06:45:55.615Z,5.10
2019-05-05T06:48:24.129Z,5.53
2019-05-05T06:50:54.435Z,5.43
2019-05-05T06:53:23.915Z,5.30
2019-05-05T06:55:54.285Z,5.87
2019-05-05T06:58:24.185Z,6.53
2019-05-05T07:00:54.265Z,5.83
2019-05-05T07:03:24.351Z,5.97
2019-05-05T07:05:53.908Z,5.60
2019-05-05T07:08:24.371Z,5.20
2019-05-05T07:10:54.730Z,5.37
2019-05-05T07:13:24.436Z,5.43
2019-05-05T07:15:54.227Z,5.03
2019-05-05T07:18:24.661Z,5.70
2019-05-05T07:20:54.499Z,4.77
2019-05-05T07:23:24.651Z,4.70
2019-05-05T07:25:54.929Z,5.23
2019-05-05T07:28:23.539Z,5.10
2019-05-05T07:30:52.086Z,4.80
2019-05-05T07:33:20.576Z,5.00
2019-05-05T07:35:56.769Z,4.60
2019-05-05T07:38:20.791Z,4.40
2019-05-05T07:40:49.188Z,4.80
2019-05-05T07:43:17.636Z,4.17
2019-05-05T07:45:46.044Z,4.47
2019-05-05T07:48:14.477Z,4.17
2019-05-05T07:50:47.970Z,4.30
2019-05-05T07:53:17.646Z,3.43
2019-05-05T07:55:44.441Z,4.03
2019-05-05T07:58:13.916Z,3.30
2019-05-05T08:00:43.705Z,4.30
2019-05-05T08:03:14.234Z,4.17
2019-05-05T08:05:44.180Z,4.00
2019-05-05T08:08:13.897Z,3.73
2019-05-05T08:10:43.703Z,4.17
2019-05-05T08:13:14.126Z,4.40
2019-05-05T08:15:56.670Z,3.80
2019-05-05T08:18:34.456Z,3.10
2019-05-05T08:21:04.392Z,3.33
2019-05-05T08:23:40.687Z,3.73
2019-05-05T08:26:13.822Z,3.70
2019-05-05T08:28:55.874Z,3.80
2019-05-05T08:31:25.958Z,3.47
2019-05-05T08:33:54.752Z,3.23
2019-05-05T08:36:23.544Z,3.00
2019-05-05T08:38:52.015Z,2.40
2019-05-05T08:41:20.443Z,2.37
2019-05-05T08:43:48.850Z,2.30
2019-05-05T08:46:17.283Z,2.60
2019-05-05T08:48:45.689Z,2.67
2019-05-05T08:51:14.288Z,2.07
2019-05-05T08:53:48.029Z,2.50
2019-05-05T08:56:14.595Z,2.70
2019-05-05T08:58:43.795Z,2.10
2019-05-05T09:01:14.737Z,2.13
2019-05-05T09:03:44.328Z,2.37
2019-05-05T09:06:13.775Z,2.23
2019-05-05T09:08:44.211Z,2.30
2019-05-05T09:11:14.057Z,2.30
2019-05-05T09:13:44.695Z,2.63
2019-05-05T09:16:14.473Z,2.70
2019-05-05T09:19:04.163Z,2.43
2019-05-05T09:21:34.508Z,2.10
2019-05-05T09:24:20.243Z,2.30
2019-05-05T09:26:50.794Z,2.60
2019-05-05T09:29:20.845Z,2.40
2019-05-05T09:31:49.337Z,2.60
2019-05-05T09:34:17.750Z,2.57
2019-05-05T09:36:46.174Z,2.50
2019-05-05T09:39:14.574Z,2.30
2019-05-05T09:41:44.625Z,2.23
2019-05-05T09:44:13.656Z,2.20
2019-05-05T09:46:44.125Z,2.47
2019-05-05T09:49:14.081Z,2.50
2019-05-05T09:51:44.032Z,2.20
2019-05-05T09:54:16.700Z,2.20
2019-05-05T09:56:44.421Z,2.10
2019-05-05T09:59:13.610Z,2.20
2019-05-05T10:01:44.341Z,1.90
2019-05-05T10:04:13.876Z,2.20
2019-05-05T10:06:47.118Z,2.00
2019-05-05T10:09:13.822Z,2.43
2019-05-05T10:11:44.834Z,2.13
2019-05-05T10:14:14.347Z,2.27
2019-05-05T10:16:42.674Z,2.20
2019-05-05T10:19:11.109Z,2.43
2019-05-05T10:21:39.520Z,2.03
2019-05-05T10:24:27.904Z,2.10
2019-05-05T10:26:48.806Z,2.00
2019-05-05T10:29:17.309Z,2.00
2019-05-05T10:31:45.785Z,2.20
2019-05-05T10:34:15.857Z,2.13
2019-05-05T10:36:44.331Z,2.07
2019-05-05T10:39:33.474Z,2.50
2019-05-05T10:42:03.929Z,2.27
2019-05-05T10:44:34.098Z,2.20
2019-05-05T10:47:04.385Z,2.30
2019-05-05T10:49:33.664Z,2.20
2019-05-05T10:52:03.759Z,1.80
2019-05-05T10:54:43.314Z,1.97
2019-05-05T10:57:04.020Z,2.30
2019-05-05T10:59:34.374Z,2.20
2019-05-05T11:02:04.974Z,2.30
2019-05-05T11:04:33.533Z,2.20
2019-05-05T11:07:03.966Z,2.50
2019-05-05T11:09:33.734Z,2.20
2019-05-05T11:12:02.294Z,1.87
2019-05-05T11:14:30.722Z,2.00
2019-05-05T11:16:59.203Z,2.17
2019-05-05T11:19:27.694Z,2.20
2019-05-05T11:21:56.095Z,1.90
2019-05-05T11:24:24.590Z,2.00
2019-05-05T11:26:53.949Z,2.50
2019-05-05T11:29:24.086Z,2.63
2019-05-05T11:31:52.679Z,2.80
2019-05-05T11:34:24.675Z,2.40
2019-05-05T11:36:57.241Z,2.50
2019-05-05T11:39:25.676Z,2.30
2019-05-05T11:41:54.811Z,2.40
2019-05-05T11:44:24.241Z,2.37
2019-05-05T11:46:54.676Z,2.40
2019-05-05T11:49:24.459Z,2.50
2019-05-05T11:51:54.213Z,2.40
2019-05-05T11:54:24.626Z,2.60
2019-05-05T11:56:53.924Z,2.17
2019-05-05T11:59:23.730Z,2.30
2019-05-05T12:01:54.645Z,2.20
2019-05-05T12:04:23.936Z,2.40
2019-05-05T12:06:52.594Z,2.70
2019-05-05T12:09:24.774Z,2.50
2019-05-05T12:11:54.575Z,2.30
2019-05-05T12:14:27.116Z,2.47
2019-05-05T12:16:54.719Z,2.20
2019-05-05T12:19:24.304Z,2.30
2019-05-05T12:21:54.869Z,2.17
2019-05-05T12:24:24.945Z,2.57
2019-05-05T12:26:55.163Z,2.00
2019-05-05T12:29:24.556Z,2.20
2019-05-05T12:31:53.078Z,2.17
2019-05-05T12:34:23.483Z,2.17
2019-05-05T12:36:53.798Z,2.40
2019-05-05T12:39:21.842Z,2.33
2019-05-05T12:41:50.281Z,2.30
2019-05-05T12:44:20.388Z,2.40
2019-05-05T12:46:53.241Z,2.13
2019-05-05T12:49:24.795Z,2.27
2019-05-05T12:51:53.959Z,2.40
2019-05-05T12:54:22.063Z,2.40
2019-05-05T12:56:50.496Z,2.10
2019-05-05T12:59:20.541Z,2.10
2019-05-05T13:01:48.972Z,1.97
2019-05-05T13:04:17.374Z,2.40
2019-05-05T13:06:45.805Z,2.00
2019-05-05T13:09:15.854Z,1.90
2019-05-05T13:11:44.280Z,2.20
2019-05-05T13:14:14.237Z,1.77
2019-05-05T13:16:52.772Z,1.90
2019-05-05T13:19:14.701Z,1.97
2019-05-05T13:21:50.473Z,2.30
2019-05-05T13:24:26.157Z,1.90
2019-05-05T13:26:58.717Z,2.20
2019-05-05T13:29:27.117Z,2.13
2019-05-05T13:31:55.544Z,1.87
2019-05-05T13:34:23.958Z,2.17
2019-05-05T13:36:52.458Z,1.73
2019-05-05T13:39:21.035Z,1.93
2019-05-05T13:41:49.468Z,1.90
2019-05-05T13:44:37.710Z,2.20
2019-05-05T13:47:06.146Z,2.30
2019-05-05T13:49:36.191Z,2.90
2019-05-05T13:52:05.196Z,2.67
2019-05-05T13:54:33.671Z,2.90
2019-05-05T13:57:03.889Z,3.43
2019-05-05T13:59:33.927Z,3.43
2019-05-05T14:02:02.404Z,7.73
2019-05-05T14:04:30.809Z,3.20
2019-05-05T14:06:59.243Z,8.10
2019-05-05T14:09:27.650Z,5.70
2019-05-05T14:11:56.081Z,4.10
2019-05-05T14:14:24.551Z,3.70
2019-05-05T14:16:53.805Z,3.13
2019-05-05T14:19:24.716Z,2.53
2019-05-05T14:21:53.855Z,2.90
2019-05-05T14:24:24.066Z,2.80
2019-05-05T14:26:54.232Z,2.73
2019-05-05T14:29:39.177Z,2.83
2019-05-05T14:32:08.874Z,3.10
2019-05-05T14:34:44.028Z,3.70
2019-05-05T14:37:33.872Z,4.23
2019-05-05T14:40:02.203Z,3.50
2019-05-05T14:42:30.703Z,3.50
2019-05-05T14:44:59.105Z,3.27
2019-05-05T14:47:27.533Z,3.60
2019-05-05T14:49:55.933Z,3.70
2019-05-05T14:52:24.906Z,3.83
2019-05-05T14:54:54.395Z,3.80
2019-05-05T14:57:24.655Z,3.10
2019-05-05T14:59:54.010Z,3.50
2019-05-05T15:02:24.299Z,3.87
2019-05-05T15:04:53.961Z,3.70
2019-05-05T15:07:26.735Z,3.90
2019-05-05T15:09:56.809Z,3.40
2019-05-05T15:12:26.853Z,3.47
2019-05-05T15:14:55.291Z,3.07
2019-05-05T15:17:24.618Z,3.30
2019-05-05T15:19:54.079Z,3.23
2019-05-05T15:22:23.922Z,3.40
2019-05-05T15:24:53.613Z,3.77
2019-05-05T15:27:24.158Z,3.53
2019-05-05T15:29:54.260Z,3.30
2019-05-05T15:32:23.989Z,3.57
2019-05-05T15:34:54.610Z,3.10
2019-05-05T15:37:23.762Z,3.07
2019-05-05T15:39:53.585Z,3.73
2019-05-05T15:42:22.240Z,3.47
2019-05-05T15:44:50.666Z,3.43
2019-05-05T15:47:19.067Z,3.97
2019-05-05T15:49:47.505Z,4.17
2019-05-05T15:52:15.906Z,4.20
2019-05-05T15:54:44.757Z,3.77
2019-05-05T15:57:14.870Z,3.33
2019-05-05T15:59:43.736Z,3.37
2019-05-05T16:02:13.388Z,5.00
2019-05-05T16:04:41.978Z,3.67
2019-05-05T16:07:10.455Z,3.77
2019-05-05T16:09:38.854Z,3.73
2019-05-05T16:12:07.295Z,3.47
2019-05-05T16:14:37.336Z,3.50
2019-05-05T16:17:25.514Z,4.00
2019-05-05T16:19:58.573Z,3.67
2019-05-05T16:22:28.640Z,3.23
2019-05-05T16:25:14.081Z,3.67
2019-05-05T16:27:44.562Z,3.10
2019-05-05T16:30:15.311Z,4.00
2019-05-05T16:32:43.711Z,3.63
2019-05-05T16:35:14.481Z,3.07
2019-05-05T16:37:43.185Z,4.30
2019-05-05T16:40:14.284Z,9.90
2019-05-05T16:42:43.721Z,4.00
2019-05-05T16:45:13.626Z,8.27
2019-05-05T16:47:44.310Z,3.63
2019-05-05T16:50:13.620Z,6.10
2019-05-05T16:52:54.485Z,5.80
2019-05-05T16:55:24.451Z,3.70
2019-05-05T16:57:55.021Z,5.70
2019-05-05T17:00:25.643Z,4.13
2019-05-05T17:02:53.672Z,4.97
2019-05-05T17:05:24.043Z,3.87
2019-05-05T17:07:55.425Z,3.13
2019-05-05T17:10:24.430Z,2.80
2019-05-05T17:12:53.287Z,2.93
2019-05-05T17:15:35.592Z,3.30
2019-05-05T17:18:08.106Z,5.20
2019-05-05T17:20:54.393Z,4.20
2019-05-05T17:23:23.877Z,3.30
2019-05-05T17:25:53.748Z,2.60
2019-05-05T17:28:23.850Z,2.70
2019-05-05T17:30:54.209Z,3.10
2019-05-05T17:33:24.172Z,3.23
2019-05-05T17:35:53.934Z,3.00
2019-05-05T17:38:24.418Z,3.30
2019-05-05T17:40:54.526Z,3.80
2019-05-05T17:43:34.062Z,3.37
2019-05-05T17:46:07.480Z,3.77
2019-05-05T17:48:54.061Z,3.70
2019-05-05T17:51:36.110Z,3.93
2019-05-05T17:54:06.247Z,4.10
2019-05-05T17:56:34.671Z,3.70
2019-05-05T17:59:03.537Z,3.77
2019-05-05T18:01:33.605Z,4.10
2019-05-05T18:04:03.994Z,4.27
2019-05-05T18:06:44.071Z,3.23
2019-05-05T18:09:14.180Z,3.97
2019-05-05T18:11:46.935Z,4.17
2019-05-05T18:14:19.723Z,3.97
2019-05-05T18:16:48.150Z,3.93
2019-05-05T18:19:16.552Z,4.43
2019-05-05T18:21:44.951Z,4.30
2019-05-05T18:24:13.799Z,3.77
2019-05-05T18:26:43.586Z,4.57
2019-05-05T18:29:12.045Z,4.40
2019-05-05T18:31:40.447Z,4.90
2019-05-05T18:34:08.890Z,4.60
2019-05-05T18:36:37.293Z,4.70
2019-05-05T18:39:07.826Z,5.00
2019-05-05T18:41:40.562Z,5.40
2019-05-05T18:44:13.483Z,4.90
2019-05-05T18:46:43.555Z,5.70
2019-05-05T18:49:13.909Z,5.40
2019-05-05T18:51:43.953Z,5.10
2019-05-05T18:54:12.499Z,4.73
2019-05-05T18:56:40.903Z,5.30
2019-05-05T18:59:09.323Z,5.37
2019-05-05T19:01:39.357Z,4.87
2019-05-05T19:04:09.424Z,5.03
2019-05-05T19:06:48.225Z,5.27
2019-05-05T19:09:18.351Z,5.40
2019-05-05T19:11:46.746Z,5.20
2019-05-05T19:14:15.178Z,5.30
2019-05-05T19:16:43.705Z,5.07
2019-05-05T19:19:14.225Z,5.53
2019-05-05T19:21:54.706Z,5.90
2019-05-05T19:24:23.180Z,5.30
2019-05-05T19:26:51.579Z,5.97
2019-05-05T19:29:20.006Z,4.90
2019-05-05T19:31:48.407Z,5.20
2019-05-05T19:34:16.841Z,5.20
2019-05-05T19:36:45.241Z,5.40
2019-05-05T19:39:13.861Z,5.40
2019-05-05T19:41:46.586Z,5.47
2019-05-05T19:44:14.554Z,5.33
2019-05-05T19:46:55.878Z,5.37
2019-05-05T19:49:24.309Z,5.70
2019-05-05T19:51:54.136Z,5.00
2019-05-05T19:54:22.721Z,5.30
2019-05-05T19:56:51.126Z,5.03
2019-05-05T19:59:19.551Z,5.17
2019-05-05T20:01:47.957Z,5.30
2019-05-05T20:04:16.395Z,4.60
2019-05-05T20:06:44.800Z,5.63
2019-05-05T20:09:14.213Z,4.87
2019-05-05T20:11:43.740Z,4.60
2019-05-05T20:14:14.812Z,4.97
2019-05-05T20:17:00.737Z,4.93
2019-05-05T20:19:31.180Z,6.30
2019-05-05T20:21:59.584Z,5.50
2019-05-05T20:24:28.051Z,5.50
2019-05-05T20:26:56.577Z,4.70
2019-05-05T20:29:24.975Z,5.33
2019-05-05T20:31:54.961Z,5.50
2019-05-05T20:34:41.347Z,5.00
2019-05-05T20:37:11.413Z,4.73
2019-05-05T20:39:39.878Z,4.93
2019-05-05T20:42:08.619Z,4.30
2019-05-05T20:44:37.756Z,5.03
2019-05-05T20:47:06.256Z,5.33
2019-05-05T20:49:34.737Z,5.43
2019-05-05T20:52:03.803Z,5.53
2019-05-05T20:54:32.316Z,5.43
2019-05-05T20:57:00.749Z,6.53
2019-05-05T20:59:31.043Z,6.37
2019-05-05T21:01:59.376Z,5.57
2019-05-05T21:04:27.776Z,5.50
2019-05-05T21:06:56.283Z,5.03
2019-05-05T21:09:24.936Z,5.40
2019-05-05T21:11:54.755Z,4.87
2019-05-05T21:14:32.001Z,5.60
2019-05-05T21:16:54.778Z,4.97
2019-05-05T21:19:24.761Z,5.30
2019-05-05T21:21:54.950Z,5.50
2019-05-05T21:24:23.945Z,5.40
2019-05-05T21:26:56.790Z,4.90
2019-05-05T21:29:38.209Z,4.80
2019-05-05T21:31:55.520Z,5.33
2019-05-05T21:34:24.778Z,5.17
2019-05-05T21:36:54.087Z,5.40
2019-05-05T21:39:24.667Z,5.87
2019-05-05T21:41:52.788Z,4.70
2019-05-05T21:44:21.193Z,6.00
2019-05-05T21:46:49.628Z,5.67
2019-05-05T21:49:18.033Z,5.10
2019-05-05T21:51:48.103Z,6.37
2019-05-05T21:54:29.928Z,5.10
2019-05-05T21:57:05.699Z,5.50
2019-05-05T21:59:34.099Z,5.67
2019-05-05T22:02:03.973Z,5.47
2019-05-05T22:04:33.781Z,5.40
2019-05-05T22:07:03.733Z,5.80
2019-05-05T22:09:32.339Z,5.20
2019-05-05T22:12:00.745Z,5.43
2019-05-05T22:14:29.181Z,5.47
2019-05-05T22:16:57.583Z,5.40
2019-05-05T22:19:27.654Z,5.40
2019-05-05T22:21:57.704Z,5.00
2019-05-05T22:24:26.137Z,6.10
2019-05-05T22:26:54.540Z,5.43
2019-05-05T22:29:24.892Z,5.97
2019-05-05T22:31:53.095Z,5.60
2019-05-05T22:34:21.521Z,5.17
2019-05-05T22:36:49.924Z,5.10
2019-05-05T22:39:18.364Z,5.50
2019-05-05T22:41:46.767Z,5.70
2019-05-05T22:44:15.201Z,5.47
2019-05-05T22:46:43.745Z,5.70
2019-05-05T22:49:12.175Z,5.83
2019-05-05T22:51:40.585Z,5.80
2019-05-05T22:54:09.483Z,4.93
2019-05-05T22:56:40.801Z,6.20
2019-05-05T22:59:09.308Z,5.83
2019-05-05T23:01:37.783Z,5.97
2019-05-05T23:04:16.612Z,5.57
2019-05-05T23:06:55.533Z,5.97
2019-05-05T23:09:23.975Z,6.20
2019-05-05T23:11:54.470Z,5.67
2019-05-05T23:14:28.592Z,5.70
2019-05-05T23:17:12.360Z,4.97
2019-05-05T23:19:44.358Z,5.67
2019-05-05T23:22:14.662Z,5.90
2019-05-05T23:24:45.246Z,6.00
2019-05-05T23:27:15.439Z,6.60
2019-05-05T23:29:44.604Z,6.00
2019-05-05T23:32:15.363Z,6.50
2019-05-05T23:34:44.512Z,6.60
2019-05-05T23:37:13.732Z,6.40
2019-05-05T23:39:42.403Z,5.83
2019-05-05T23:42:10.809Z,6.33
2019-05-05T23:44:39.261Z,6.10
2019-05-05T23:47:07.663Z,5.83
2019-05-05T23:49:36.076Z,6.57
2019-05-05T23:52:04.520Z,5.73
2019-05-05T23:54:34.084Z,6.37
2019-05-05T23:57:04.673Z,6.13
2019-05-05T23:59:32.840Z,6.03
